createdAt,value
2019-05-19T00:03:05.552Z,12.25
2019-05-19T00:09:10.286Z,12.37
2019-05-19T00:15:15.064Z,12.33
2019-05-19T00:21:19.620Z,12.15
2019-05-19T00:27:24.188Z,12.03
2019-05-19T00:33:28.726Z,12.08
2019-05-19T00:39:33.335Z,11.92
2019-05-19T00:45:37.951Z,12.09
2019-05-19T00:51:42.685Z,11.84
2019-05-19T00:57:48.281Z,11.89
2019-05-19T01:03:53.017Z,11.62
2019-05-19T01:09:57.613Z,11.53
2019-05-19T01:16:02.421Z,11.62
2019-05-19T01:22:07.935Z,11.76
2019-05-19T01:28:14.370Z,11.55
2019-05-19T01:34:19.005Z,11.41
2019-05-19T01:40:23.758Z,11.51
2019-05-19T01:46:28.286Z,11.45
2019-05-19T01:52:32.873Z,11.43
2019-05-19T01:58:37.530Z,11.16
2019-05-19T02:04:42.072Z,11.06
2019-05-19T02:10:46.625Z,11.02
2019-05-19T02:16:51.219Z,11.08
2019-05-19T02:22:55.883Z,11.09
2019-05-19T02:29:00.442Z,10.96
2019-05-19T02:35:06.706Z,10.75
2019-05-19T02:41:12.686Z,10.88
2019-05-19T02:47:21.218Z,10.93
2019-05-19T02:53:26.115Z,10.87
2019-05-19T02:59:32.573Z,10.84
2019-05-19T03:05:38.521Z,10.62
2019-05-19T03:11:43.110Z,10.79
2019-05-19T03:17:47.664Z,10.54
2019-05-19T03:23:52.234Z,10.39
2019-05-19T03:29:58.493Z,10.40
2019-05-19T03:36:03.112Z,10.26
2019-05-19T03:42:10.344Z,10.34
2019-05-19T03:48:14.177Z,10.48
2019-05-19T03:54:18.866Z,10.36
2019-05-19T04:00:23.775Z,10.36
2019-05-19T04:06:28.375Z,10.65
2019-05-19T04:12:32.986Z,10.55
2019-05-19T04:18:37.722Z,10.68
2019-05-19T04:24:45.572Z,10.85
2019-05-19T04:30:50.162Z,11.04
2019-05-19T04:36:54.747Z,11.26
2019-05-19T04:42:59.295Z,11.30
2019-05-19T04:49:04.034Z,11.39
2019-05-19T04:55:09.119Z,11.66
2019-05-19T05:01:13.656Z,11.65
2019-05-19T05:07:18.365Z,11.84
2019-05-19T05:13:22.995Z,12.00
2019-05-19T05:19:27.601Z,12.18
2019-05-19T05:25:32.318Z,12.60
2019-05-19T05:31:36.896Z,12.92
2019-05-19T05:37:41.483Z,12.89
2019-05-19T05:43:46.169Z,12.91
2019-05-19T05:49:50.830Z,13.08
2019-05-19T05:55:55.431Z,13.31
2019-05-19T06:01:59.989Z,13.43
2019-05-19T06:08:04.654Z,13.81
2019-05-19T06:14:09.259Z,14.23
2019-05-19T06:20:13.913Z,14.37
2019-05-19T06:26:18.452Z,14.71
2019-05-19T06:32:24.749Z,14.77
2019-05-19T06:38:29.398Z,15.11
2019-05-19T06:44:33.960Z,15.37
2019-05-19T06:50:40.738Z,16.04
2019-05-19T06:56:44.941Z,16.51
2019-05-19T07:02:49.565Z,16.77
2019-05-19T07:08:54.236Z,17.23
2019-05-19T07:14:58.855Z,17.61
2019-05-19T07:21:03.436Z,17.78
2019-05-19T07:27:10.982Z,17.74
2019-05-19T07:33:15.552Z,18.22
2019-05-19T07:39:20.128Z,18.66
2019-05-19T07:45:24.819Z,19.44
2019-05-19T07:51:29.441Z,19.92
2019-05-19T07:57:34.088Z,20.63
2019-05-19T08:03:38.684Z,21.14
2019-05-19T08:09:43.263Z,21.64
2019-05-19T08:15:47.932Z,22.42
2019-05-19T08:21:53.218Z,22.38
2019-05-19T08:28:07.487Z,22.33
2019-05-19T08:34:04.346Z,22.46
2019-05-19T08:40:09.386Z,22.56
2019-05-19T08:46:14.107Z,23.22
2019-05-19T08:52:18.736Z,23.38
2019-05-19T08:58:23.331Z,23.87
2019-05-19T09:04:28.017Z,24.55
2019-05-19T09:10:32.577Z,24.37
2019-05-19T09:16:37.168Z,24.86
2019-05-19T09:22:41.859Z,25.08
2019-05-19T09:28:46.686Z,24.64
2019-05-19T09:34:51.340Z,23.94
2019-05-19T09:40:56.742Z,25.00
2019-05-19T09:47:01.389Z,25.22
2019-05-19T09:53:06.107Z,25.60
2019-05-19T09:59:10.682Z,25.50
2019-05-19T10:05:15.359Z,25.63
2019-05-19T10:11:27.939Z,26.71
2019-05-19T10:17:34.122Z,28.15
2019-05-19T10:23:38.688Z,28.76
2019-05-19T10:29:43.376Z,28.69
2019-05-19T10:35:47.951Z,29.03
2019-05-19T10:41:52.570Z,27.74
2019-05-19T10:47:57.142Z,26.78
2019-05-19T10:54:01.801Z,26.11
2019-05-19T11:00:08.396Z,25.69
2019-05-19T11:06:13.244Z,25.46
2019-05-19T11:12:17.799Z,25.90
2019-05-19T11:18:22.437Z,25.97
2019-05-19T11:24:27.062Z,26.05
2019-05-19T11:30:31.719Z,26.08
2019-05-19T11:36:36.358Z,27.08
2019-05-19T11:42:40.983Z,28.01
2019-05-19T11:48:45.551Z,27.36
2019-05-19T11:54:50.115Z,27.23
2019-05-19T12:00:54.849Z,26.86
2019-05-19T12:06:59.550Z,27.14
2019-05-19T12:13:04.108Z,27.37
2019-05-19T12:19:08.765Z,26.58
2019-05-19T12:25:13.409Z,26.47
2019-05-19T12:31:18.240Z,26.35
2019-05-19T12:37:22.895Z,26.02
2019-05-19T12:43:27.625Z,26.03
2019-05-19T12:49:32.266Z,27.72
2019-05-19T12:55:36.811Z,31.28
2019-05-19T13:01:41.649Z,30.02
2019-05-19T13:07:46.718Z,30.68
2019-05-19T13:13:51.401Z,32.22
2019-05-19T13:19:56.138Z,31.77
2019-05-19T13:26:00.850Z,31.16
2019-05-19T13:32:05.482Z,33.27
2019-05-19T13:38:10.082Z,35.38
2019-05-19T13:44:14.699Z,35.25
2019-05-19T13:50:19.521Z,34.61
2019-05-19T13:56:24.177Z,34.18
2019-05-19T14:02:28.716Z,35.57
2019-05-19T14:08:33.336Z,33.22
2019-05-19T14:14:38.023Z,31.75
2019-05-19T14:20:45.615Z,30.67
2019-05-19T14:26:50.176Z,30.08
2019-05-19T14:32:57.532Z,30.18
2019-05-19T14:39:05.360Z,29.78
2019-05-19T14:45:09.294Z,28.19
2019-05-19T14:51:13.853Z,27.35
2019-05-19T14:57:18.433Z,26.22
2019-05-19T15:03:23.226Z,26.13
2019-05-19T15:09:28.055Z,26.11
2019-05-19T15:15:32.739Z,25.91
2019-05-19T15:21:37.344Z,25.89
2019-05-19T15:27:41.917Z,25.56
2019-05-19T15:33:46.485Z,25.68
2019-05-19T15:39:51.279Z,25.93
2019-05-19T15:45:55.862Z,25.93
2019-05-19T15:52:04.206Z,25.75
2019-05-19T15:58:16.027Z,24.84
2019-05-19T16:04:13.267Z,23.65
2019-05-19T16:10:19.223Z,23.32
2019-05-19T16:16:25.502Z,23.21
2019-05-19T16:22:30.065Z,23.15
2019-05-19T16:28:34.602Z,23.26
2019-05-19T16:34:39.228Z,23.04
2019-05-19T16:40:45.471Z,23.39
2019-05-19T16:46:50.140Z,23.61
2019-05-19T16:52:54.792Z,24.10
2019-05-19T16:58:59.484Z,24.99
2019-05-19T17:05:05.784Z,25.58
2019-05-19T17:11:18.006Z,27.05
2019-05-19T17:17:16.962Z,29.16
2019-05-19T17:23:21.587Z,29.55
2019-05-19T17:29:26.297Z,31.89
2019-05-19T17:35:30.950Z,32.94
2019-05-19T17:41:35.624Z,32.63
2019-05-19T17:47:40.271Z,29.61
2019-05-19T17:53:45.000Z,27.31
2019-05-19T17:59:50.940Z,25.63
2019-05-19T18:05:55.579Z,23.96
2019-05-19T18:12:00.217Z,22.58
2019-05-19T18:18:05.104Z,21.31
2019-05-19T18:24:09.785Z,20.59
2019-05-19T18:30:15.170Z,19.94
2019-05-19T18:36:19.801Z,19.47
2019-05-19T18:42:24.422Z,19.34
2019-05-19T18:48:29.079Z,18.67
2019-05-19T18:54:33.627Z,18.40
2019-05-19T19:00:39.527Z,18.12
2019-05-19T19:06:44.459Z,18.03
2019-05-19T19:12:49.427Z,17.84
2019-05-19T19:18:54.159Z,17.34
2019-05-19T19:24:58.834Z,17.19
2019-05-19T19:31:03.646Z,16.93
2019-05-19T19:37:08.348Z,16.98
2019-05-19T19:43:12.973Z,16.61
2019-05-19T19:49:17.627Z,16.53
2019-05-19T19:55:22.243Z,16.44
2019-05-19T20:01:26.880Z,16.47
2019-05-19T20:07:31.521Z,16.27
2019-05-19T20:13:36.118Z,16.12
2019-05-19T20:19:41.799Z,15.83
2019-05-19T20:25:46.506Z,15.77
2019-05-19T20:31:51.167Z,15.59
2019-05-19T20:37:55.800Z,15.57
2019-05-19T20:44:00.389Z,15.97
2019-05-19T20:50:07.548Z,15.79
2019-05-19T20:56:12.152Z,16.23
2019-05-19T21:02:16.861Z,16.15
2019-05-19T21:08:21.529Z,16.00
2019-05-19T21:14:26.192Z,15.95
2019-05-19T21:20:30.741Z,16.00
2019-05-19T21:26:35.501Z,15.92
2019-05-19T21:32:40.096Z,15.67
2019-05-19T21:38:44.737Z,15.56
2019-05-19T21:44:49.300Z,15.20
2019-05-19T21:50:57.068Z,15.28
2019-05-19T21:57:01.634Z,15.08
2019-05-19T22:03:06.403Z,15.06
2019-05-19T22:09:11.118Z,14.69
2019-05-19T22:15:15.749Z,14.75
2019-05-19T22:21:20.326Z,14.65
2019-05-19T22:27:24.876Z,14.64
2019-05-19T22:33:29.516Z,14.59
2019-05-19T22:39:34.144Z,14.70
2019-05-19T22:45:38.710Z,14.71
2019-05-19T22:51:43.463Z,14.77
2019-05-19T22:57:48.019Z,14.43
2019-05-19T23:03:52.614Z,14.32
2019-05-19T23:09:57.180Z,14.42
2019-05-19T23:16:01.752Z,14.38
2019-05-19T23:22:06.402Z,14.06
2019-05-19T23:28:10.957Z,13.99
2019-05-19T23:34:15.516Z,13.95
2019-05-19T23:40:20.228Z,13.84
2019-05-19T23:46:24.907Z,14.09
2019-05-19T23:52:29.492Z,14.00
2019-05-19T23:58:34.049Z,13.67
